Devine, Colorado
Current Conditions -  °F | °C
As of 4:53 PM on Friday 19 Dec 2014 (Local Time) from KPUB Reporting Station
Clear Clear  
Wind Chill: 39°   Ceiling: Unl
Heat Index: 42°   Visibility: 10mi
Dew Point: 19°   Wind: 5mph
Humidity: 40%   Direction: 160°SSE
Pressure: 30.02"   Gusts: NA
Location:  38.2964°N, 104.538°W
Report Text: KPUB 192353Z 16004KT 10SM CLR 06/M07 A3002 RMK AO2 SLP187 T00561072 10089 20050 56000
Loading
Personal Weather Stations






























Interactive Weather Map New forecast layout! Learn more

10-Day Weather Forecast

Advertisements
Track Severe Weather on mobile